createdAt,value
2019-01-17T00:00:02.298Z,0.00
2019-01-17T00:01:02.260Z,0.00
2019-01-17T00:02:02.214Z,0.00
2019-01-17T00:03:02.212Z,0.00
2019-01-17T00:04:02.239Z,0.00
2019-01-17T00:05:02.196Z,0.00
2019-01-17T00:06:02.172Z,0.00
2019-01-17T00:07:02.156Z,0.00
2019-01-17T00:08:02.150Z,0.00
2019-01-17T00:09:02.137Z,0.00
2019-01-17T00:10:02.134Z,0.00
2019-01-17T00:11:02.125Z,0.00
2019-01-17T00:12:02.093Z,0.00
2019-01-17T00:13:02.085Z,0.00
2019-01-17T00:14:02.074Z,0.00
2019-01-17T00:15:02.083Z,0.00
2019-01-17T00:16:02.083Z,0.00
2019-01-17T00:17:02.040Z,0.00
2019-01-17T00:18:02.036Z,0.00
2019-01-17T00:19:02.029Z,0.00
2019-01-17T00:20:02.029Z,0.00
2019-01-17T00:21:02.003Z,0.00
2019-01-17T00:22:02.001Z,0.00
2019-01-17T00:23:03.155Z,0.00
2019-01-17T00:24:02.737Z,0.00
2019-01-17T00:25:02.002Z,0.00
2019-01-17T00:26:01.950Z,0.00
2019-01-17T00:27:01.989Z,0.00
2019-01-17T00:28:01.937Z,0.00
2019-01-17T00:29:01.935Z,0.00
2019-01-17T00:30:01.918Z,0.00
2019-01-17T00:31:01.908Z,0.00
2019-01-17T00:32:01.881Z,0.00
2019-01-17T00:33:01.871Z,0.00
2019-01-17T00:34:01.875Z,0.00
2019-01-17T00:35:01.866Z,0.00
2019-01-17T00:36:01.885Z,0.00
2019-01-17T00:37:01.855Z,0.00
2019-01-17T00:38:01.825Z,0.00
2019-01-17T00:39:01.812Z,0.00
2019-01-17T00:40:01.854Z,0.00
2019-01-17T00:41:01.840Z,0.00
2019-01-17T00:42:01.835Z,0.00
2019-01-17T00:43:01.768Z,0.00
2019-01-17T00:44:01.770Z,0.00
2019-01-17T00:45:01.769Z,0.00
2019-01-17T00:46:01.725Z,0.00
2019-01-17T00:47:01.727Z,0.00
2019-01-17T00:48:01.739Z,0.00
2019-01-17T00:49:01.717Z,0.00
2019-01-17T00:50:01.699Z,0.00
2019-01-17T00:51:01.673Z,0.00
2019-01-17T00:52:01.679Z,0.00
2019-01-17T00:53:01.660Z,0.00
2019-01-17T00:54:01.711Z,0.00
2019-01-17T00:55:01.685Z,0.00
2019-01-17T00:56:01.628Z,0.00
2019-01-17T00:57:01.660Z,0.00
2019-01-17T00:58:01.687Z,0.00
2019-01-17T00:59:01.610Z,0.00
2019-01-17T01:00:01.680Z,0.00
2019-01-17T01:01:01.568Z,0.00
2019-01-17T01:02:01.559Z,0.00
2019-01-17T01:03:01.562Z,0.00
2019-01-17T01:04:01.570Z,0.00
2019-01-17T01:05:01.545Z,0.00
2019-01-17T01:06:01.608Z,0.00
2019-01-17T01:07:01.502Z,0.00
2019-01-17T01:08:01.588Z,0.00
2019-01-17T01:09:01.493Z,0.00
2019-01-17T01:10:01.508Z,0.00
2019-01-17T01:11:01.536Z,0.00
2019-01-17T01:12:01.474Z,0.00
2019-01-17T01:13:01.472Z,0.00
2019-01-17T01:14:01.431Z,0.00
2019-01-17T01:15:01.453Z,0.00
2019-01-17T01:16:01.400Z,0.00
2019-01-17T01:17:01.412Z,0.00
2019-01-17T01:18:01.388Z,0.00
2019-01-17T01:19:01.411Z,0.00
2019-01-17T01:20:01.355Z,0.00
2019-01-17T01:21:01.344Z,0.00
2019-01-17T01:22:01.339Z,0.00
2019-01-17T01:23:01.346Z,0.00
2019-01-17T01:24:01.333Z,0.00
2019-01-17T01:25:01.304Z,0.00
2019-01-17T01:26:01.324Z,0.00
2019-01-17T01:27:01.282Z,0.00
2019-01-17T01:28:01.273Z,0.00
2019-01-17T01:29:01.262Z,0.00
2019-01-17T01:30:01.269Z,0.00
2019-01-17T01:31:01.252Z,0.00
2019-01-17T01:32:01.227Z,0.00
2019-01-17T01:33:01.213Z,0.00
2019-01-17T01:34:01.208Z,0.00
2019-01-17T01:35:01.197Z,0.00
2019-01-17T01:36:01.203Z,0.00
2019-01-17T01:37:01.181Z,0.00
2019-01-17T01:38:01.206Z,0.00
2019-01-17T01:39:01.157Z,0.00
2019-01-17T01:40:01.151Z,0.00
2019-01-17T01:41:01.158Z,0.00
2019-01-17T01:42:01.123Z,0.00
2019-01-17T01:43:01.144Z,0.00
2019-01-17T01:44:01.110Z,0.00
2019-01-17T01:45:01.095Z,0.00
2019-01-17T01:46:01.091Z,0.00
2019-01-17T01:47:01.105Z,0.00
2019-01-17T01:48:01.063Z,0.00
2019-01-17T01:49:01.063Z,0.00
2019-01-17T01:50:01.053Z,0.00
2019-01-17T01:51:01.023Z,0.00
2019-01-17T01:52:01.034Z,0.00
2019-01-17T01:53:01.028Z,0.00
2019-01-17T01:54:01.000Z,0.00
2019-01-17T01:55:01.008Z,0.00
2019-01-17T01:56:00.974Z,0.00
2019-01-17T01:57:00.960Z,0.00
2019-01-17T01:58:00.968Z,0.00
2019-01-17T01:59:01.039Z,0.00
2019-01-17T02:00:00.930Z,0.00
2019-01-17T02:01:00.981Z,0.00
2019-01-17T02:02:00.909Z,0.00
2019-01-17T02:03:00.902Z,0.00
2019-01-17T02:04:00.937Z,0.00
2019-01-17T02:05:00.918Z,0.00
2019-01-17T02:06:00.862Z,0.00
2019-01-17T02:07:00.858Z,0.00
2019-01-17T02:08:00.861Z,0.00
2019-01-17T02:09:00.834Z,0.00
2019-01-17T02:10:00.838Z,0.00
2019-01-17T02:11:00.824Z,0.00
2019-01-17T02:12:00.814Z,0.00
2019-01-17T02:13:00.838Z,0.00
2019-01-17T02:14:00.777Z,0.00
2019-01-17T02:15:00.765Z,0.00
2019-01-17T02:16:00.779Z,0.00
2019-01-17T02:17:00.758Z,0.00
2019-01-17T02:18:00.735Z,0.00
2019-01-17T02:19:00.723Z,0.00
2019-01-17T02:20:00.712Z,0.00
2019-01-17T02:21:00.711Z,0.00
2019-01-17T02:22:00.718Z,0.00
2019-01-17T02:23:00.708Z,0.00
2019-01-17T02:24:00.684Z,0.00
2019-01-17T02:25:00.674Z,0.00
2019-01-17T02:26:00.664Z,0.00
2019-01-17T02:27:00.646Z,0.00
2019-01-17T02:28:00.674Z,0.00
2019-01-17T02:29:00.654Z,0.00
2019-01-17T02:30:00.627Z,0.00
2019-01-17T02:31:00.620Z,0.00
2019-01-17T02:32:00.606Z,0.00
2019-01-17T02:33:00.606Z,0.00
2019-01-17T02:34:00.587Z,0.00
2019-01-17T02:35:00.583Z,0.00
2019-01-17T02:36:00.559Z,0.00
2019-01-17T02:37:00.558Z,0.00
2019-01-17T02:38:00.527Z,0.00
2019-01-17T02:39:00.546Z,0.00
2019-01-17T02:40:00.530Z,0.00
2019-01-17T02:41:00.490Z,0.00
2019-01-17T02:42:00.503Z,0.00
2019-01-17T02:43:00.470Z,0.00
2019-01-17T02:44:00.459Z,0.00
2019-01-17T02:45:00.452Z,0.00
2019-01-17T02:46:00.462Z,0.00
2019-01-17T02:47:00.448Z,0.00
2019-01-17T02:48:00.432Z,0.00
2019-01-17T02:49:00.448Z,0.00
2019-01-17T02:50:00.502Z,0.00
2019-01-17T02:51:00.393Z,0.00
2019-01-17T02:52:00.393Z,0.00
2019-01-17T02:53:00.380Z,0.00
2019-01-17T02:54:00.352Z,0.00
2019-01-17T02:55:00.349Z,0.00
2019-01-17T02:56:00.336Z,0.00
2019-01-17T02:57:00.339Z,0.00
2019-01-17T02:58:00.316Z,0.00
2019-01-17T02:59:00.307Z,0.00
2019-01-17T03:00:00.297Z,0.00
2019-01-17T03:01:00.308Z,0.00
2019-01-17T03:02:00.331Z,0.00
2019-01-17T03:03:00.272Z,0.00
2019-01-17T03:04:00.310Z,0.00
2019-01-17T03:05:00.267Z,0.00
2019-01-17T03:06:00.259Z,0.00
2019-01-17T03:07:00.250Z,0.00
2019-01-17T03:08:00.212Z,0.00
2019-01-17T03:09:00.201Z,0.00
2019-01-17T03:10:00.192Z,0.00
2019-01-17T03:11:00.176Z,0.00
2019-01-17T03:12:00.196Z,0.00
2019-01-17T03:13:00.156Z,0.00
2019-01-17T03:14:00.148Z,0.00
2019-01-17T03:15:00.260Z,0.00
2019-01-17T03:16:00.156Z,0.00
2019-01-17T03:17:00.122Z,0.00
2019-01-17T03:18:00.123Z,0.00
2019-01-17T03:19:00.136Z,0.00
2019-01-17T03:20:00.088Z,0.00
2019-01-17T03:21:00.084Z,0.00
2019-01-17T03:22:00.070Z,0.00
2019-01-17T03:23:00.060Z,0.00
2019-01-17T03:24:00.067Z,0.00
2019-01-17T03:25:00.045Z,0.00
2019-01-17T03:26:00.022Z,0.00
2019-01-17T03:27:00.030Z,0.00
2019-01-17T03:28:00.027Z,0.00
2019-01-17T03:29:00.063Z,0.00
2019-01-17T03:30:00.025Z,0.00
2019-01-17T03:31:00.124Z,0.00
2019-01-17T03:31:59.997Z,0.00
2019-01-17T03:32:59.984Z,0.00
2019-01-17T03:33:59.950Z,0.00
2019-01-17T03:34:59.925Z,0.00
2019-01-17T03:35:59.942Z,0.00
2019-01-17T03:36:59.923Z,0.00
2019-01-17T03:37:59.891Z,0.00
2019-01-17T03:38:59.882Z,0.00
2019-01-17T03:39:59.883Z,0.00
2019-01-17T03:40:59.856Z,0.00
2019-01-17T03:41:59.863Z,0.00
2019-01-17T03:42:59.841Z,0.00
2019-01-17T03:43:59.828Z,0.00
2019-01-17T03:44:59.844Z,0.00
2019-01-17T03:45:59.812Z,0.00
2019-01-17T03:46:59.797Z,0.00
2019-01-17T03:47:59.811Z,0.00
2019-01-17T03:48:59.776Z,0.00
2019-01-17T03:49:59.763Z,0.00
2019-01-17T03:50:59.782Z,0.00
2019-01-17T03:51:59.745Z,0.00
2019-01-17T03:52:59.739Z,0.00
2019-01-17T03:53:59.739Z,0.00
2019-01-17T03:54:59.711Z,0.00
2019-01-17T03:55:59.703Z,0.00
2019-01-17T03:56:59.736Z,0.00
2019-01-17T03:57:59.683Z,0.00
2019-01-17T03:58:59.668Z,0.00
2019-01-17T03:59:59.678Z,0.00
2019-01-17T04:00:59.651Z,0.00
2019-01-17T04:01:59.641Z,0.00
2019-01-17T04:02:59.647Z,0.00
2019-01-17T04:03:59.623Z,0.00
2019-01-17T04:04:59.609Z,0.00
2019-01-17T04:05:59.623Z,0.00
2019-01-17T04:06:59.582Z,0.00
2019-01-17T04:07:59.576Z,0.00
2019-01-17T04:08:59.583Z,0.00
2019-01-17T04:09:59.553Z,0.00
2019-01-17T04:10:59.546Z,0.00
2019-01-17T04:11:59.551Z,0.00
2019-01-17T04:12:59.565Z,0.00
2019-01-17T04:13:59.513Z,0.00
2019-01-17T04:14:59.527Z,0.00
2019-01-17T04:15:59.503Z,0.00
2019-01-17T04:16:59.490Z,0.00
2019-01-17T04:17:59.497Z,0.00
2019-01-17T04:18:59.484Z,0.00
2019-01-17T04:19:59.465Z,0.00
2019-01-17T04:20:59.470Z,0.00
2019-01-17T04:21:59.465Z,0.00
2019-01-17T04:22:59.448Z,0.00
2019-01-17T04:23:59.438Z,0.00
2019-01-17T04:24:59.414Z,0.00
2019-01-17T04:25:59.473Z,0.00
2019-01-17T04:26:59.404Z,0.00
2019-01-17T04:27:59.392Z,0.00
2019-01-17T04:28:59.361Z,0.00
2019-01-17T04:29:59.374Z,0.00
2019-01-17T04:30:59.339Z,0.00
2019-01-17T04:31:59.414Z,0.00
2019-01-17T04:32:59.624Z,0.00
2019-01-17T04:33:59.314Z,0.00
2019-01-17T04:34:59.341Z,0.00
2019-01-17T04:35:59.292Z,0.00
2019-01-17T04:36:59.293Z,0.00
2019-01-17T04:37:59.314Z,0.00
2019-01-17T04:38:59.294Z,0.00
2019-01-17T04:39:59.249Z,0.00
2019-01-17T04:40:59.238Z,0.00
2019-01-17T04:41:59.247Z,0.00
2019-01-17T04:42:59.218Z,0.00
2019-01-17T04:43:59.209Z,0.00
2019-01-17T04:44:59.234Z,0.00
2019-01-17T04:45:59.191Z,0.00
2019-01-17T04:46:59.179Z,0.00
2019-01-17T04:47:59.163Z,0.00
2019-01-17T04:48:59.155Z,0.00
2019-01-17T04:49:59.142Z,0.00
2019-01-17T04:50:59.143Z,0.00
2019-01-17T04:51:59.112Z,0.00
2019-01-17T04:52:59.102Z,0.00
2019-01-17T04:53:59.093Z,0.00
2019-01-17T04:55:05.078Z,0.00
2019-01-17T04:56:00.140Z,0.00
2019-01-17T04:56:59.081Z,0.00
2019-01-17T04:57:59.115Z,0.00
2019-01-17T04:58:59.042Z,0.00
2019-01-17T04:59:59.041Z,0.00
2019-01-17T05:00:59.020Z,0.00
2019-01-17T05:01:59.044Z,0.00
2019-01-17T05:02:58.994Z,0.00
2019-01-17T05:03:59.010Z,0.00
2019-01-17T05:04:58.982Z,0.00
2019-01-17T05:05:58.981Z,0.00
2019-01-17T05:06:58.963Z,0.00
2019-01-17T05:07:58.985Z,0.00
2019-01-17T05:08:58.943Z,0.00
2019-01-17T05:09:58.985Z,0.00
2019-01-17T05:10:58.958Z,0.00
2019-01-17T05:11:58.926Z,0.00
2019-01-17T05:12:58.923Z,0.00
2019-01-17T05:13:58.908Z,0.00
2019-01-17T05:14:58.947Z,0.00
2019-01-17T05:15:58.854Z,0.00
2019-01-17T05:16:58.851Z,0.00
2019-01-17T05:17:58.928Z,0.00
2019-01-17T05:18:58.855Z,0.00
2019-01-17T05:19:58.844Z,0.00
2019-01-17T05:20:58.821Z,0.00
2019-01-17T05:21:58.837Z,0.00
2019-01-17T05:22:58.794Z,0.00
2019-01-17T05:23:58.791Z,0.00
2019-01-17T05:24:58.802Z,0.00
2019-01-17T05:25:58.804Z,0.00
2019-01-17T05:26:58.740Z,0.00
2019-01-17T05:27:58.736Z,0.00
2019-01-17T05:28:58.747Z,0.00
2019-01-17T05:29:58.745Z,0.00
2019-01-17T05:30:58.695Z,0.00
2019-01-17T05:31:58.725Z,0.00
2019-01-17T05:32:58.719Z,0.00
2019-01-17T05:33:58.678Z,0.00
2019-01-17T05:34:58.658Z,0.00
2019-01-17T05:35:58.674Z,0.00
2019-01-17T05:36:58.648Z,0.00
2019-01-17T05:37:58.628Z,0.00
2019-01-17T05:38:58.612Z,0.00
2019-01-17T05:39:58.597Z,0.00
2019-01-17T05:40:58.586Z,0.00
2019-01-17T05:41:58.717Z,0.00
2019-01-17T05:42:58.596Z,0.00
2019-01-17T05:43:58.554Z,0.00
2019-01-17T05:44:58.546Z,0.00
2019-01-17T05:45:58.536Z,0.00
2019-01-17T05:46:58.536Z,0.00
2019-01-17T05:47:58.608Z,0.00
2019-01-17T05:48:58.542Z,0.00
2019-01-17T05:49:58.496Z,0.00
2019-01-17T05:50:58.489Z,0.00
2019-01-17T05:51:58.472Z,0.00
2019-01-17T05:52:58.486Z,0.00
2019-01-17T05:53:58.484Z,0.00
2019-01-17T05:54:58.467Z,0.00
2019-01-17T05:55:58.477Z,0.00
2019-01-17T05:56:58.426Z,0.00
2019-01-17T05:57:58.438Z,0.00
2019-01-17T05:58:58.435Z,0.00
2019-01-17T05:59:58.443Z,0.00
2019-01-17T06:00:58.435Z,0.00
2019-01-17T06:01:59.374Z,0.00
2019-01-17T06:02:58.368Z,0.00
2019-01-17T06:03:58.407Z,0.00
2019-01-17T06:04:58.373Z,0.00
2019-01-17T06:05:58.329Z,0.00
2019-01-17T06:06:58.313Z,0.00
2019-01-17T06:07:58.305Z,0.00
2019-01-17T06:08:58.297Z,0.00
2019-01-17T06:09:58.306Z,0.00
2019-01-17T06:10:58.308Z,0.00
2019-01-17T06:11:58.920Z,0.00
2019-01-17T06:12:58.251Z,0.00
2019-01-17T06:13:58.309Z,0.00
2019-01-17T06:14:58.229Z,0.00
2019-01-17T06:15:58.236Z,0.00
2019-01-17T06:16:58.290Z,0.00
2019-01-17T06:17:58.272Z,0.00
2019-01-17T06:18:58.270Z,0.00
2019-01-17T06:19:58.180Z,0.00
2019-01-17T06:20:58.171Z,0.00
2019-01-17T06:21:58.176Z,0.00
2019-01-17T06:22:58.144Z,0.00
2019-01-17T06:23:58.137Z,0.00
2019-01-17T06:24:58.150Z,0.00
2019-01-17T06:25:58.118Z,0.00
2019-01-17T06:27:06.517Z,0.00
2019-01-17T06:27:58.277Z,0.00
2019-01-17T06:28:58.970Z,0.00
2019-01-17T06:29:58.212Z,0.00
2019-01-17T06:30:58.532Z,0.00
2019-01-17T06:31:58.173Z,0.00
2019-01-17T06:32:58.112Z,0.00
2019-01-17T06:34:05.747Z,0.00
2019-01-17T06:34:58.034Z,0.00
2019-01-17T06:35:58.008Z,0.00
2019-01-17T06:36:58.043Z,0.00
2019-01-17T06:37:57.989Z,0.00
2019-01-17T06:38:58.044Z,0.00
2019-01-17T06:39:57.988Z,0.00
2019-01-17T06:40:57.978Z,0.00
2019-01-17T06:41:57.961Z,0.00
2019-01-17T06:42:57.955Z,0.00
2019-01-17T06:43:57.926Z,0.00
2019-01-17T06:44:57.940Z,0.00
2019-01-17T06:45:57.915Z,0.00
2019-01-17T06:46:57.937Z,0.00
2019-01-17T06:47:57.942Z,0.00
2019-01-17T06:48:57.882Z,0.00
2019-01-17T06:49:57.877Z,0.00
2019-01-17T06:50:57.878Z,0.00
2019-01-17T06:51:57.849Z,0.00
2019-01-17T06:52:57.836Z,0.00
2019-01-17T06:53:57.831Z,0.00
2019-01-17T06:54:57.805Z,0.00
2019-01-17T06:55:57.794Z,0.00
2019-01-17T06:56:57.812Z,0.00
2019-01-17T06:57:57.792Z,4.00
2019-01-17T06:58:57.775Z,4.00
2019-01-17T06:59:57.833Z,0.00
2019-01-17T07:00:57.781Z,4.00
2019-01-17T07:01:57.748Z,4.00
2019-01-17T07:02:57.746Z,8.00
2019-01-17T07:03:57.734Z,4.00
2019-01-17T07:04:57.698Z,4.00
2019-01-17T07:05:57.744Z,8.00
2019-01-17T07:06:57.710Z,8.00
2019-01-17T07:07:57.665Z,12.00
2019-01-17T07:08:57.676Z,16.00
2019-01-17T07:09:57.658Z,16.00
2019-01-17T07:10:57.638Z,20.00
2019-01-17T07:11:57.628Z,24.00
2019-01-17T07:12:57.612Z,24.00
2019-01-17T07:13:57.608Z,32.00
2019-01-17T07:14:57.626Z,28.00
2019-01-17T07:15:57.602Z,20.00
2019-01-17T07:16:57.627Z,16.00
2019-01-17T07:17:57.559Z,20.00
2019-01-17T07:18:57.550Z,32.00
2019-01-17T07:19:57.541Z,44.00
2019-01-17T07:20:57.953Z,56.00
2019-01-17T07:21:57.535Z,68.00
2019-01-17T07:22:57.547Z,72.00
2019-01-17T07:23:57.533Z,80.00
2019-01-17T07:24:57.486Z,84.00
2019-01-17T07:25:57.473Z,88.00
2019-01-17T07:26:57.488Z,104.00
2019-01-17T07:27:57.458Z,112.00
2019-01-17T07:28:57.444Z,112.00
2019-01-17T07:29:57.448Z,104.00
2019-01-17T07:30:57.439Z,128.00
2019-01-17T07:31:57.418Z,136.00
2019-01-17T07:32:57.435Z,144.00
2019-01-17T07:33:57.407Z,152.00
2019-01-17T07:34:57.402Z,168.00
2019-01-17T07:35:57.413Z,184.00
2019-01-17T07:36:57.377Z,204.00
2019-01-17T07:37:57.349Z,212.00
2019-01-17T07:38:57.351Z,228.00
2019-01-17T07:39:57.340Z,248.00
2019-01-17T07:40:57.348Z,248.00
2019-01-17T07:41:57.464Z,248.00
2019-01-17T07:42:57.506Z,268.00
2019-01-17T07:43:57.302Z,284.00
2019-01-17T07:44:57.290Z,300.00
2019-01-17T07:45:57.307Z,320.00
2019-01-17T07:46:57.262Z,360.00
2019-01-17T07:47:57.272Z,384.00
2019-01-17T07:48:57.283Z,384.00
2019-01-17T07:49:57.228Z,396.00
2019-01-17T07:50:57.228Z,416.00
2019-01-17T07:51:57.222Z,432.00
2019-01-17T07:52:57.209Z,444.00
2019-01-17T07:53:57.180Z,456.00
2019-01-17T07:54:57.178Z,468.00
2019-01-17T07:55:57.192Z,480.00
2019-01-17T07:56:57.175Z,492.00
2019-01-17T07:57:57.136Z,508.00
2019-01-17T07:58:57.124Z,516.00
2019-01-17T07:59:57.133Z,528.00
2019-01-17T08:00:57.122Z,540.00
2019-01-17T08:01:57.092Z,564.00
2019-01-17T08:02:57.088Z,572.00
2019-01-17T08:03:57.283Z,556.00
2019-01-17T08:04:57.078Z,544.00
2019-01-17T08:05:57.071Z,572.00
2019-01-17T08:06:57.038Z,560.00
2019-01-17T08:07:57.029Z,544.00
2019-01-17T08:08:57.019Z,532.00
2019-01-17T08:09:57.013Z,500.00
2019-01-17T08:10:57.025Z,516.00
2019-01-17T08:11:57.005Z,552.00
2019-01-17T08:12:56.973Z,580.00
2019-01-17T08:13:56.987Z,696.00
2019-01-17T08:14:56.954Z,724.00
2019-01-17T08:15:58.023Z,772.00
2019-01-17T08:16:56.940Z,944.00
2019-01-17T08:17:56.946Z,1052.00
2019-01-17T08:18:56.927Z,1008.00
2019-01-17T08:19:56.929Z,1192.00
2019-01-17T08:20:56.886Z,1532.00
2019-01-17T08:21:56.900Z,1240.00
2019-01-17T08:22:56.868Z,1180.00
2019-01-17T08:23:56.872Z,1080.00
2019-01-17T08:24:56.884Z,1236.00
2019-01-17T08:25:56.835Z,1092.00
2019-01-17T08:26:56.843Z,988.00
2019-01-17T08:27:56.811Z,1268.00
2019-01-17T08:28:56.806Z,1608.00
2019-01-17T08:29:56.802Z,1636.00
2019-01-17T08:30:56.778Z,1548.00
2019-01-17T08:31:56.782Z,1392.00
2019-01-17T08:32:56.757Z,1316.00
2019-01-17T08:33:56.757Z,1176.00
2019-01-17T08:34:56.737Z,976.00
2019-01-17T08:35:56.757Z,1020.00
2019-01-17T08:36:56.763Z,1076.00
2019-01-17T08:37:56.710Z,1164.00
2019-01-17T08:38:56.696Z,1412.00
2019-01-17T08:39:56.688Z,1748.00
2019-01-17T08:40:56.675Z,1788.00
2019-01-17T08:41:56.665Z,1708.00
2019-01-17T08:42:56.687Z,1360.00
2019-01-17T08:43:56.657Z,1408.00
2019-01-17T08:44:56.663Z,1724.00
2019-01-17T08:45:56.633Z,1768.00
2019-01-17T08:46:56.629Z,1576.00
2019-01-17T08:47:56.676Z,1744.00
2019-01-17T08:48:56.623Z,2068.00
2019-01-17T08:49:56.589Z,2468.00
2019-01-17T08:50:56.587Z,2244.00
2019-01-17T08:51:56.579Z,1880.00
2019-01-17T08:52:56.563Z,2664.00
2019-01-17T08:53:56.600Z,2756.00
2019-01-17T08:54:56.549Z,2472.00
2019-01-17T08:56:00.801Z,2480.00
2019-01-17T08:56:56.528Z,2248.00
2019-01-17T08:57:56.507Z,2072.00
2019-01-17T08:58:56.502Z,1900.00
2019-01-17T08:59:56.478Z,2096.00
2019-01-17T09:00:56.496Z,2336.00
2019-01-17T09:01:56.490Z,2372.00
2019-01-17T09:02:56.448Z,1916.00
2019-01-17T09:03:56.518Z,1612.00
2019-01-17T09:04:56.436Z,1300.00
2019-01-17T09:05:56.426Z,1252.00
2019-01-17T09:06:56.423Z,1100.00
2019-01-17T09:07:56.405Z,1124.00
2019-01-17T09:08:56.390Z,1244.00
2019-01-17T09:09:56.383Z,1352.00
2019-01-17T09:10:56.371Z,1632.00
2019-01-17T09:11:56.369Z,1828.00
2019-01-17T09:12:56.347Z,2036.00
2019-01-17T09:13:56.384Z,2084.00
2019-01-17T09:14:56.321Z,1956.00
2019-01-17T09:15:56.333Z,2208.00
2019-01-17T09:16:56.326Z,2008.00
2019-01-17T09:17:56.282Z,2312.00
2019-01-17T09:18:56.286Z,2596.00
2019-01-17T09:19:56.296Z,2376.00
2019-01-17T09:20:56.267Z,1880.00
2019-01-17T09:21:56.254Z,2536.00
2019-01-17T09:22:56.298Z,2252.00
2019-01-17T09:23:56.235Z,2484.00
2019-01-17T09:24:56.254Z,2480.00
2019-01-17T09:25:56.206Z,2240.00
2019-01-17T09:26:56.208Z,1848.00
2019-01-17T09:27:56.211Z,1796.00
2019-01-17T09:28:56.238Z,2164.00
2019-01-17T09:29:56.180Z,2508.00
2019-01-17T09:30:56.152Z,2916.00
2019-01-17T09:31:56.164Z,2492.00
2019-01-17T09:32:56.128Z,2508.00
2019-01-17T09:33:56.117Z,2152.00
2019-01-17T09:34:56.129Z,1960.00
2019-01-17T09:35:56.103Z,2156.00
2019-01-17T09:36:56.112Z,2328.00
2019-01-17T09:37:56.103Z,1656.00
2019-01-17T09:38:56.070Z,1516.00
2019-01-17T09:39:56.060Z,1620.00
2019-01-17T09:40:56.046Z,1932.00
2019-01-17T09:41:56.050Z,2412.00
2019-01-17T09:42:56.043Z,2148.00
2019-01-17T09:43:56.016Z,2524.00
2019-01-17T09:44:56.023Z,2396.00
2019-01-17T09:45:55.991Z,3400.00
2019-01-17T09:46:55.988Z,3336.00
2019-01-17T09:47:55.999Z,3968.00
2019-01-17T09:48:55.952Z,4028.00
2019-01-17T09:49:56.145Z,4356.00
2019-01-17T09:50:55.937Z,4596.00
2019-01-17T09:51:55.947Z,4364.00
2019-01-17T09:52:55.939Z,4704.00
2019-01-17T09:53:55.919Z,4940.00
2019-01-17T09:54:55.901Z,4848.00
2019-01-17T09:55:55.882Z,4604.00
2019-01-17T09:56:55.918Z,4176.00
2019-01-17T09:57:55.895Z,4036.00
2019-01-17T09:58:55.871Z,3856.00
2019-01-17T09:59:55.852Z,3560.00
2019-01-17T10:00:55.844Z,3212.00
2019-01-17T10:01:55.827Z,2484.00
2019-01-17T10:02:55.843Z,1596.00
2019-01-17T10:03:55.820Z,1164.00
2019-01-17T10:04:55.833Z,1084.00
2019-01-17T10:05:55.777Z,1316.00
2019-01-17T10:06:55.806Z,1668.00
2019-01-17T10:07:55.780Z,2980.00
2019-01-17T10:08:55.747Z,4436.00
2019-01-17T10:09:55.748Z,4004.00
2019-01-17T10:10:55.786Z,2764.00
2019-01-17T10:11:55.711Z,2308.00
2019-01-17T10:12:55.698Z,2816.00
2019-01-17T10:13:55.709Z,2276.00
2019-01-17T10:14:55.681Z,1696.00
2019-01-17T10:15:55.694Z,2292.00
2019-01-17T10:16:55.658Z,2484.00
2019-01-17T10:17:55.649Z,2048.00
2019-01-17T10:18:55.635Z,1776.00
2019-01-17T10:19:55.709Z,2268.00
2019-01-17T10:20:55.614Z,1756.00
2019-01-17T10:21:55.602Z,1468.00
2019-01-17T10:22:55.610Z,1556.00
2019-01-17T10:23:55.583Z,2720.00
2019-01-17T10:24:55.568Z,3000.00
2019-01-17T10:25:55.582Z,2672.00
2019-01-17T10:26:55.553Z,2600.00
2019-01-17T10:27:55.545Z,1860.00
2019-01-17T10:28:55.542Z,1632.00
2019-01-17T10:29:55.524Z,1656.00
2019-01-17T10:30:55.513Z,1876.00
2019-01-17T10:31:55.579Z,1924.00
2019-01-17T10:32:55.485Z,2312.00
2019-01-17T10:33:55.474Z,2828.00
2019-01-17T10:34:55.495Z,2288.00
2019-01-17T10:35:55.455Z,1768.00
2019-01-17T10:36:55.445Z,1916.00
2019-01-17T10:37:55.449Z,1496.00
2019-01-17T10:38:55.425Z,1148.00
2019-01-17T10:39:55.416Z,952.00
2019-01-17T10:40:55.418Z,728.00
2019-01-17T10:41:55.427Z,916.00
2019-01-17T10:42:55.559Z,892.00
2019-01-17T10:43:55.366Z,840.00
2019-01-17T10:44:55.356Z,1048.00
2019-01-17T10:45:55.376Z,1180.00
2019-01-17T10:46:55.339Z,1176.00
2019-01-17T10:48:00.187Z,1620.00
2019-01-17T10:48:56.318Z,2252.00
2019-01-17T10:49:55.305Z,2780.00
2019-01-17T10:50:55.297Z,2996.00
2019-01-17T10:51:55.282Z,3312.00
2019-01-17T10:52:55.498Z,3240.00
2019-01-17T10:53:55.301Z,2796.00
2019-01-17T10:54:55.256Z,3376.00
2019-01-17T10:55:55.239Z,2976.00
2019-01-17T10:56:55.231Z,2860.00
2019-01-17T10:57:55.218Z,2288.00
2019-01-17T10:58:55.217Z,2664.00
2019-01-17T10:59:55.233Z,2980.00
2019-01-17T11:00:55.204Z,3132.00
2019-01-17T11:01:55.175Z,2320.00
2019-01-17T11:02:55.166Z,2284.00
2019-01-17T11:03:55.154Z,1872.00
2019-01-17T11:04:55.147Z,1424.00
2019-01-17T11:05:55.155Z,1700.00
2019-01-17T11:06:55.131Z,1460.00
2019-01-17T11:07:55.125Z,1028.00
2019-01-17T11:08:55.126Z,1152.00
2019-01-17T11:09:55.094Z,1160.00
2019-01-17T11:10:55.093Z,1312.00
2019-01-17T11:11:55.094Z,1608.00
2019-01-17T11:12:55.162Z,1256.00
2019-01-17T11:13:55.079Z,996.00
2019-01-17T11:14:55.068Z,1008.00
2019-01-17T11:15:55.041Z,1448.00
2019-01-17T11:16:55.080Z,1336.00
2019-01-17T11:17:55.060Z,2148.00
2019-01-17T11:18:55.027Z,1884.00
2019-01-17T11:19:55.023Z,1812.00
2019-01-17T11:20:54.986Z,2888.00
2019-01-17T11:21:54.969Z,2888.00
2019-01-17T11:22:55.002Z,3156.00
2019-01-17T11:23:54.976Z,3228.00
2019-01-17T11:24:54.940Z,3140.00
2019-01-17T11:25:54.944Z,3172.00
2019-01-17T11:26:54.916Z,2496.00
2019-01-17T11:27:54.955Z,2620.00
2019-01-17T11:28:55.027Z,1832.00
2019-01-17T11:29:54.949Z,2024.00
2019-01-17T11:30:54.881Z,2172.00
2019-01-17T11:31:54.888Z,1668.00
2019-01-17T11:32:54.859Z,2180.00
2019-01-17T11:33:54.836Z,1804.00
2019-01-17T11:34:54.854Z,1848.00
2019-01-17T11:35:54.833Z,1384.00
2019-01-17T11:36:54.812Z,1480.00
2019-01-17T11:37:54.801Z,1560.00
2019-01-17T11:38:54.797Z,1384.00
2019-01-17T11:39:54.815Z,1680.00
2019-01-17T11:40:54.833Z,1544.00
2019-01-17T11:41:54.793Z,1588.00
2019-01-17T11:42:54.801Z,1812.00
2019-01-17T11:43:54.827Z,1916.00
2019-01-17T11:44:54.723Z,2004.00
2019-01-17T11:45:54.726Z,1508.00
2019-01-17T11:46:54.764Z,1724.00
2019-01-17T11:47:54.720Z,1712.00
2019-01-17T11:48:54.678Z,1564.00
2019-01-17T11:49:54.697Z,1856.00
2019-01-17T11:50:54.664Z,1636.00
2019-01-17T11:51:54.653Z,1380.00
2019-01-17T11:52:54.687Z,1300.00
2019-01-17T11:53:54.643Z,1628.00
2019-01-17T11:54:54.624Z,2128.00
2019-01-17T11:55:54.606Z,1984.00
2019-01-17T11:56:54.714Z,2268.00
2019-01-17T11:57:54.601Z,2592.00
2019-01-17T11:58:59.945Z,2144.00
2019-01-17T11:59:55.596Z,1860.00
2019-01-17T12:00:54.567Z,1608.00
2019-01-17T12:01:54.576Z,1548.00
2019-01-17T12:02:54.561Z,2136.00
2019-01-17T12:03:54.541Z,2024.00
2019-01-17T12:04:54.533Z,1164.00
2019-01-17T12:05:54.527Z,1520.00
2019-01-17T12:06:54.524Z,1540.00
2019-01-17T12:07:54.526Z,1716.00
2019-01-17T12:08:54.528Z,1848.00
2019-01-17T12:09:54.485Z,1204.00
2019-01-17T12:10:54.481Z,1136.00
2019-01-17T12:11:54.555Z,1788.00
2019-01-17T12:12:54.462Z,844.00
2019-01-17T12:13:54.429Z,716.00
2019-01-17T12:14:54.408Z,776.00
2019-01-17T12:15:54.416Z,1308.00
2019-01-17T12:16:54.398Z,1428.00
2019-01-17T12:17:54.438Z,1400.00
2019-01-17T12:18:54.403Z,1392.00
2019-01-17T12:19:54.366Z,1464.00
2019-01-17T12:20:54.358Z,1288.00
2019-01-17T12:21:54.346Z,1236.00
2019-01-17T12:22:54.354Z,1052.00
2019-01-17T12:23:54.314Z,1340.00
2019-01-17T12:24:54.330Z,1300.00
2019-01-17T12:25:54.305Z,1040.00
2019-01-17T12:26:54.303Z,916.00
2019-01-17T12:27:54.275Z,1052.00
2019-01-17T12:28:54.268Z,792.00
2019-01-17T12:29:54.254Z,884.00
2019-01-17T12:30:54.237Z,996.00
2019-01-17T12:31:54.240Z,908.00
2019-01-17T12:32:54.220Z,1184.00
2019-01-17T12:33:54.231Z,996.00
2019-01-17T12:34:54.217Z,1476.00
2019-01-17T12:35:54.182Z,1584.00
2019-01-17T12:36:54.172Z,1268.00
2019-01-17T12:37:54.163Z,1436.00
2019-01-17T12:38:54.169Z,1692.00
2019-01-17T12:39:54.176Z,1572.00
2019-01-17T12:40:54.181Z,1972.00
2019-01-17T12:41:54.130Z,1604.00
2019-01-17T12:42:54.106Z,1720.00
2019-01-17T12:43:54.101Z,1144.00
2019-01-17T12:44:54.126Z,1056.00
2019-01-17T12:45:54.089Z,1312.00
2019-01-17T12:46:54.097Z,1544.00